Time;durP1;ratioP1;P1;durP2;ratioP2;P2;SDS_P1;SDS_P2;PMS_P1;PMS_P2;Temp;Humidity;BMP_temperature;BMP_pressure;BME280_temperature;BME280_humidity;BME280_pressure;Samples;Min_cycle;Max_cycle;Signal;HPM_P1;HPM_P2
2024/03/10 00:01:27;;;;;;;17.27;15.40;;;;;;;;;;6216546;23;20169;-81
2024/03/10 00:03:56;;;;;;;17.63;15.37;;;;;;;;;;6216981;23;20173;-80
2024/03/10 00:06:25;;;;;;;17.23;14.67;;;;;;;;;;6192279;23;20199;-79
2024/03/10 00:08:53;;;;;;;17.07;15.27;;;;;;;;;;6243698;23;20200;-81
2024/03/10 00:11:21;;;;;;;19.87;16.30;;;;;;;;;;6243368;23;20161;-79
2024/03/10 00:13:48;;;;;;;17.63;15.33;;;;;;;;;;6211275;23;20201;-78
2024/03/10 00:16:16;;;;;;;18.90;16.57;;;;;;;;;;6211299;23;20176;-79
2024/03/10 00:18:44;;;;;;;19.37;16.77;;;;;;;;;;6186113;23;20197;-81
2024/03/10 00:21:14;;;;;;;16.23;14.53;;;;;;;;;;6210422;23;20165;-81
2024/03/10 00:23:40;;;;;;;17.23;15.00;;;;;;;;;;6211020;23;20166;-80
2024/03/10 00:26:10;;;;;;;16.90;15.10;;;;;;;;;;6210649;23;20158;-79
2024/03/10 00:28:37;;;;;;;17.37;15.57;;;;;;;;;;6210904;23;20189;-79
2024/03/10 00:31:04;;;;;;;19.10;16.73;;;;;;;;;;6185661;23;20170;-79
2024/03/10 00:33:34;;;;;;;17.57;15.67;;;;;;;;;;6210525;23;20234;-80
2024/03/10 00:36:03;;;;;;;18.07;14.87;;;;;;;;;;6209831;23;20179;-80
2024/03/10 00:38:31;;;;;;;17.73;15.60;;;;;;;;;;6210365;23;20189;-79
2024/03/10 00:40:58;;;;;;;17.97;15.27;;;;;;;;;;6211681;23;20181;-82
2024/03/10 00:43:28;;;;;;;16.97;14.73;;;;;;;;;;6210024;23;20196;-79
2024/03/10 00:45:55;;;;;;;16.80;14.60;;;;;;;;;;6211373;23;20176;-79
2024/03/10 00:48:25;;;;;;;16.20;14.50;;;;;;;;;;6186061;23;20239;-78
2024/03/10 00:50:54;;;;;;;17.23;14.80;;;;;;;;;;6210010;23;20169;-79
2024/03/10 00:53:24;;;;;;;17.43;15.40;;;;;;;;;;6210075;23;20196;-79
2024/03/10 00:55:52;;;;;;;17.73;15.83;;;;;;;;;;6210212;23;20248;-80
2024/03/10 00:58:19;;;;;;;18.63;16.63;;;;;;;;;;6211212;23;20186;-80
2024/03/10 01:00:47;;;;;;;18.40;15.50;;;;;;;;;;6210289;23;20176;-79
2024/03/10 01:03:16;;;;;;;19.37;16.07;;;;;;;;;;6210409;23;20516;-80
2024/03/10 01:05:43;;;;;;;19.00;16.03;;;;;;;;;;6211966;23;20223;-80
2024/03/10 01:08:14;;;;;;;20.07;16.33;;;;;;;;;;6211895;23;20664;-80
2024/03/10 01:10:42;;;;;;;20.67;16.17;;;;;;;;;;6210099;23;20208;-82
2024/03/10 01:13:10;;;;;;;19.57;16.97;;;;;;;;;;6221450;23;20212;-80
2024/03/10 01:15:41;;;;;;;18.77;16.27;;;;;;;;;;6190650;23;20165;-80
2024/03/10 01:18:09;;;;;;;20.13;16.83;;;;;;;;;;6215376;23;20618;-79
2024/03/10 01:20:37;;;;;;;18.80;16.37;;;;;;;;;;6215495;23;20180;-81
2024/03/10 01:23:07;;;;;;;19.67;16.37;;;;;;;;;;6215476;23;20161;-83
2024/03/10 01:25:44;;;;;;;20.67;17.47;;;;;;;;;;6192442;23;20172;-79
2024/03/10 01:28:12;;;;;;;20.00;17.23;;;;;;;;;;6215083;23;20194;-79
2024/03/10 01:30:39;;;;;;;20.10;17.27;;;;;;;;;;6215557;23;20173;-79
2024/03/10 01:33:08;;;;;;;19.77;17.13;;;;;;;;;;6215290;23;20237;-80
2024/03/10 01:35:35;;;;;;;18.83;16.60;;;;;;;;;;6214883;23;20173;-81
2024/03/10 01:38:07;;;;;;;20.17;17.30;;;;;;;;;;6190904;23;20168;-79
2024/03/10 01:40:34;;;;;;;18.47;16.17;;;;;;;;;;6214988;23;20169;-79
2024/03/10 01:43:02;;;;;;;18.70;16.70;;;;;;;;;;6190426;23;20165;-80
2024/03/10 01:45:32;;;;;;;17.93;16.00;;;;;;;;;;6241802;23;20165;-80
2024/03/10 01:47:59;;;;;;;19.73;16.93;;;;;;;;;;6214856;23;20168;-80
2024/03/10 01:50:27;;;;;;;17.70;15.43;;;;;;;;;;6189652;23;20173;-81
2024/03/10 01:52:54;;;;;;;17.17;15.10;;;;;;;;;;6215259;23;20236;-78
2024/03/10 01:55:22;;;;;;;16.53;14.70;;;;;;;;;;6241705;23;20161;-79
2024/03/10 01:57:49;;;;;;;15.83;14.13;;;;;;;;;;6215668;23;20168;-80
2024/03/10 02:00:19;;;;;;;15.63;13.93;;;;;;;;;;6190578;23;20635;-81
2024/03/10 02:02:49;;;;;;;15.83;14.13;;;;;;;;;;6215882;23;20240;-81
2024/03/10 02:05:17;;;;;;;15.30;13.70;;;;;;;;;;6215203;23;20161;-80
2024/03/10 02:07:45;;;;;;;14.83;13.27;;;;;;;;;;6215157;23;20641;-80
2024/03/10 02:10:13;;;;;;;16.10;14.27;;;;;;;;;;6241626;23;20168;-79
2024/03/10 02:12:41;;;;;;;15.43;13.77;;;;;;;;;;6215303;23;20161;-79
2024/03/10 02:15:08;;;;;;;14.50;13.03;;;;;;;;;;6241687;23;20153;-79
2024/03/10 02:17:36;;;;;;;14.40;12.67;;;;;;;;;;6189858;23;20187;-79
2024/03/10 02:20:14;;;;;;;14.37;12.87;;;;;;;;;;6215130;23;20188;-81
2024/03/10 02:22:42;;;;;;;14.23;12.73;;;;;;;;;;6214723;23;20172;-81
2024/03/10 02:25:12;;;;;;;14.30;12.83;;;;;;;;;;6214711;23;20172;-78
2024/03/10 02:27:48;;;;;;;13.53;12.13;;;;;;;;;;6215097;23;20211;-81
2024/03/10 02:47:15;;;;;;;13.80;12.33;;;;;;;;;;6214544;23;20208;-79
2024/03/10 02:49:46;;;;;;;15.17;13.27;;;;;;;;;;6214704;23;20219;-80
2024/03/10 02:52:14;;;;;;;14.77;13.27;;;;;;;;;;6214419;23;20187;-79
2024/03/10 02:54:42;;;;;;;14.57;12.97;;;;;;;;;;6215018;23;20173;-79
2024/03/10 02:57:11;;;;;;;14.80;13.30;;;;;;;;;;6214715;23;20171;-83
2024/03/10 02:59:41;;;;;;;16.17;14.47;;;;;;;;;;6242483;23;20193;-79
2024/03/10 03:02:11;;;;;;;16.17;14.47;;;;;;;;;;6243463;23;20198;-80
2024/03/10 03:04:42;;;;;;;18.13;15.00;;;;;;;;;;6192557;23;20161;-80
2024/03/10 03:07:11;;;;;;;18.03;15.70;;;;;;;;;;6243139;23;20170;-82
2024/03/10 03:09:38;;;;;;;17.77;15.73;;;;;;;;;;6243356;23;20455;-80
2024/03/10 03:12:07;;;;;;;19.27;16.77;;;;;;;;;;6217144;23;20237;-81
2024/03/10 03:14:35;;;;;;;19.17;16.83;;;;;;;;;;6210873;23;20205;-80
2024/03/10 03:17:07;;;;;;;17.67;15.77;;;;;;;;;;6211460;23;20166;-80
2024/03/10 03:19:36;;;;;;;21.47;17.00;;;;;;;;;;6211090;23;20186;-79
2024/03/10 03:22:07;;;;;;;19.63;16.87;;;;;;;;;;6210741;23;20200;-81
2024/03/10 03:24:34;;;;;;;20.10;16.93;;;;;;;;;;6186381;23;20165;-79
2024/03/10 03:27:05;;;;;;;20.93;17.70;;;;;;;;;;6212372;23;20189;-79
2024/03/10 03:29:32;;;;;;;18.70;16.63;;;;;;;;;;6212470;23;20174;-81
2024/03/10 03:32:03;;;;;;;18.40;16.20;;;;;;;;;;6212613;23;20164;-80
2024/03/10 03:34:30;;;;;;;20.50;16.63;;;;;;;;;;6211263;23;20682;-82
2024/03/10 03:36:57;;;;;;;22.63;16.97;;;;;;;;;;6210968;23;20185;-80
2024/03/10 03:39:26;;;;;;;20.17;17.80;;;;;;;;;;6186826;23;20189;-79
2024/03/10 03:41:53;;;;;;;20.83;17.97;;;;;;;;;;6211095;23;20173;-81
2024/03/10 03:44:20;;;;;;;21.07;17.23;;;;;;;;;;6212888;23;20186;-80
2024/03/10 03:46:48;;;;;;;19.97;17.77;;;;;;;;;;6211051;23;20161;-80
2024/03/10 03:49:19;;;;;;;20.57;17.53;;;;;;;;;;6212702;23;20166;-80
2024/03/10 03:51:47;;;;;;;22.53;18.07;;;;;;;;;;6212570;23;20216;-79
2024/03/10 03:54:14;;;;;;;20.17;17.23;;;;;;;;;;6211190;23;20600;-80
2024/03/10 03:56:44;;;;;;;20.27;16.90;;;;;;;;;;6211005;23;20165;-80
2024/03/10 03:59:13;;;;;;;19.80;16.83;;;;;;;;;;6211218;23;20256;-80
2024/03/10 04:01:42;;;;;;;19.53;17.43;;;;;;;;;;6211993;23;20189;-82
2024/03/10 04:04:09;;;;;;;18.40;16.17;;;;;;;;;;6212549;23;20158;-82
2024/03/10 04:06:36;;;;;;;21.10;17.00;;;;;;;;;;6212142;23;20251;-80
2024/03/10 04:09:03;;;;;;;19.00;17.00;;;;;;;;;;6212510;23;20245;-79
2024/03/10 04:11:31;;;;;;;19.00;16.80;;;;;;;;;;6211364;23;20177;-79
2024/03/10 04:13:59;;;;;;;21.07;17.20;;;;;;;;;;6210277;23;20201;-79
2024/03/10 04:16:27;;;;;;;19.33;16.67;;;;;;;;;;6211696;23;20174;-80
2024/03/10 04:18:56;;;;;;;19.50;16.83;;;;;;;;;;6212030;23;20170;-79
2024/03/10 04:21:24;;;;;;;18.43;16.43;;;;;;;;;;6212070;23;20169;-80
2024/03/10 04:23:52;;;;;;;21.10;18.13;;;;;;;;;;6210327;23;20176;-80
2024/03/10 04:26:22;;;;;;;20.87;17.93;;;;;;;;;;6210318;23;20198;-79
2024/03/10 04:28:50;;;;;;;22.20;18.50;;;;;;;;;;6185349;23;20220;-80
2024/03/10 04:31:38;;;;;;;21.57;18.20;;;;;;;;;;6210584;23;20244;-79
2024/03/10 04:34:06;;;;;;;20.23;17.53;;;;;;;;;;6209116;23;20168;-83
2024/03/10 04:36:34;;;;;;;20.67;17.07;;;;;;;;;;6185509;23;20173;-81
2024/03/10 04:39:02;;;;;;;20.40;17.83;;;;;;;;;;6210305;23;20166;-81
2024/03/10 04:41:29;;;;;;;20.57;18.13;;;;;;;;;;6212022;23;20172;-80
2024/03/10 04:43:57;;;;;;;20.43;17.17;;;;;;;;;;6210035;23;20167;-80
2024/03/10 04:46:27;;;;;;;21.73;17.93;;;;;;;;;;6209627;23;20170;-80
2024/03/10 04:48:57;;;;;;;18.03;16.13;;;;;;;;;;6211567;23;20165;-81
2024/03/10 04:51:25;;;;;;;20.90;17.30;;;;;;;;;;6211786;23;20202;-79
2024/03/10 04:53:52;;;;;;;22.53;17.67;;;;;;;;;;6209955;23;20169;-79
2024/03/10 04:56:19;;;;;;;20.43;17.03;;;;;;;;;;6211615;23;20197;-79
2024/03/10 04:58:47;;;;;;;19.87;17.77;;;;;;;;;;6185574;23;20169;-79
2024/03/10 05:01:19;;;;;;;20.80;16.83;;;;;;;;;;6211673;23;20180;-79
2024/03/10 05:03:46;;;;;;;18.90;16.90;;;;;;;;;;6210380;23;20223;-79
2024/03/10 05:06:14;;;;;;;18.47;16.40;;;;;;;;;;6211719;23;20212;-79
2024/03/10 05:08:43;;;;;;;20.30;16.80;;;;;;;;;;6209926;23;20228;-80
2024/03/10 05:11:15;;;;;;;18.93;16.10;;;;;;;;;;6211391;23;20166;-80
2024/03/10 05:13:43;;;;;;;18.97;16.57;;;;;;;;;;6209799;23;20255;-79
2024/03/10 05:16:12;;;;;;;18.53;16.10;;;;;;;;;;6210236;23;20166;-81
2024/03/10 05:18:40;;;;;;;18.33;16.13;;;;;;;;;;6185391;23;20726;-81
2024/03/10 05:21:12;;;;;;;18.77;16.37;;;;;;;;;;6209571;23;20702;-79
2024/03/10 05:23:39;;;;;;;20.57;16.37;;;;;;;;;;6184920;23;20177;-83
2024/03/10 05:26:07;;;;;;;17.53;15.33;;;;;;;;;;6209626;23;20174;-81
2024/03/10 05:28:37;;;;;;;18.60;15.40;;;;;;;;;;6209489;23;20716;-79
2024/03/10 05:31:24;;;;;;;18.23;15.80;;;;;;;;;;6209777;23;20180;-80
2024/03/10 05:33:51;;;;;;;17.80;15.47;;;;;;;;;;6211380;23;20193;-80
2024/03/10 05:36:19;;;;;;;17.97;15.33;;;;;;;;;;6208986;23;20166;-79
2024/03/10 05:38:46;;;;;;;19.57;16.13;;;;;;;;;;6210476;23;20177;-80
2024/03/10 05:41:15;;;;;;;17.77;15.87;;;;;;;;;;6211286;23;20252;-81
2024/03/10 05:43:44;;;;;;;18.07;15.30;;;;;;;;;;6210060;23;20612;-79
2024/03/10 05:46:12;;;;;;;17.57;15.57;;;;;;;;;;6211682;23;20245;-79
2024/03/10 05:48:42;;;;;;;17.60;15.03;;;;;;;;;;6211643;23;20157;-79
2024/03/10 05:51:13;;;;;;;17.60;15.30;;;;;;;;;;6185220;23;20647;-79
2024/03/10 05:53:41;;;;;;;16.77;14.57;;;;;;;;;;6210378;23;20169;-80
2024/03/10 05:56:10;;;;;;;16.73;14.50;;;;;;;;;;6210208;23;20682;-79
2024/03/10 05:58:40;;;;;;;16.80;14.07;;;;;;;;;;6210390;23;20208;-79
2024/03/10 06:01:08;;;;;;;15.90;14.20;;;;;;;;;;6211573;23;20178;-79
2024/03/10 06:03:35;;;;;;;16.07;13.77;;;;;;;;;;6210083;23;20171;-78
2024/03/10 06:06:04;;;;;;;15.53;13.87;;;;;;;;;;6211054;23;20250;-81
2024/03/10 06:08:31;;;;;;;16.77;14.47;;;;;;;;;;6184775;23;20268;-80
2024/03/10 06:10:58;;;;;;;16.53;13.87;;;;;;;;;;6209682;23;20177;-81
2024/03/10 06:13:27;;;;;;;15.63;13.93;;;;;;;;;;6224047;23;20200;-78
2024/03/10 06:15:54;;;;;;;16.07;14.17;;;;;;;;;;6241476;23;20176;-82
2024/03/10 06:18:24;;;;;;;15.57;13.67;;;;;;;;;;6214845;23;20199;-80
2024/03/10 06:26:24;;;;;;;14.80;12.60;;;;;;;;;;6214666;23;20256;-81
2024/03/10 06:28:52;;;;;;;14.13;12.43;;;;;;;;;;6214957;23;20189;-80
2024/03/10 06:31:20;;;;;;;14.10;12.60;;;;;;;;;;6215071;23;20251;-80
2024/03/10 06:33:50;;;;;;;13.23;11.83;;;;;;;;;;6215272;23;20176;-78
2024/03/10 06:36:20;;;;;;;14.33;12.23;;;;;;;;;;6243150;23;20173;-79
2024/03/10 06:38:47;;;;;;;13.83;11.97;;;;;;;;;;6243355;23;20157;-80
2024/03/10 06:41:15;;;;;;;13.47;12.03;;;;;;;;;;6215729;23;20280;-78
2024/03/10 06:43:44;;;;;;;14.50;12.77;;;;;;;;;;6242803;23;20195;-79
2024/03/10 06:46:13;;;;;;;14.37;12.87;;;;;;;;;;6216364;23;20173;-81
2024/03/10 06:48:41;;;;;;;12.97;11.67;;;;;;;;;;6243192;23;20240;-79
2024/03/10 06:51:10;;;;;;;14.07;12.60;;;;;;;;;;6243204;23;20240;-79
2024/03/10 06:53:38;;;;;;;15.17;13.33;;;;;;;;;;6216579;23;20173;-80
2024/03/10 06:56:05;;;;;;;14.30;12.80;;;;;;;;;;6216804;23;20219;-79
2024/03/10 06:58:34;;;;;;;13.80;12.40;;;;;;;;;;6216015;23;20165;-79
2024/03/10 07:01:02;;;;;;;13.77;12.37;;;;;;;;;;6243175;23;20189;-79
2024/03/10 07:03:30;;;;;;;14.70;12.83;;;;;;;;;;6191196;23;20199;-82
2024/03/10 07:06:01;;;;;;;14.10;12.60;;;;;;;;;;6215878;23;20169;-79
2024/03/10 07:08:29;;;;;;;13.77;12.30;;;;;;;;;;6242467;23;20239;-79
2024/03/10 07:10:58;;;;;;;14.53;12.97;;;;;;;;;;6215909;23;20169;-78
2024/03/10 07:13:28;;;;;;;14.07;12.67;;;;;;;;;;6242353;23;20196;-79
2024/03/10 07:15:56;;;;;;;15.03;13.47;;;;;;;;;;6243002;23;20168;-78
2024/03/10 07:18:23;;;;;;;13.50;12.10;;;;;;;;;;6242835;23;20167;-80
2024/03/10 07:20:50;;;;;;;13.20;11.80;;;;;;;;;;6191378;23;20193;-79
2024/03/10 07:23:21;;;;;;;13.87;12.37;;;;;;;;;;6216345;23;20248;-80
2024/03/10 07:25:49;;;;;;;13.97;12.27;;;;;;;;;;6242702;23;20165;-79
2024/03/10 07:28:17;;;;;;;14.77;13.27;;;;;;;;;;6215745;23;20255;-80
2024/03/10 07:30:45;;;;;;;15.77;13.53;;;;;;;;;;6215603;23;20750;-79
2024/03/10 07:33:13;;;;;;;13.50;12.10;;;;;;;;;;6215607;23;20180;-80
2024/03/10 07:35:40;;;;;;;13.90;12.43;;;;;;;;;;6242393;23;20157;-78
2024/03/10 07:38:14;;;;;;;18.40;16.07;;;;;;;;;;6216800;23;20231;-80
2024/03/10 07:40:41;;;;;;;14.10;12.60;;;;;;;;;;6243025;23;20181;-79
2024/03/10 07:43:08;;;;;;;13.23;11.93;;;;;;;;;;6242591;23;20165;-80
2024/03/10 07:45:36;;;;;;;12.93;11.63;;;;;;;;;;6215628;23;20181;-80
2024/03/10 07:48:05;;;;;;;13.00;11.70;;;;;;;;;;6242285;23;20232;-82
2024/03/10 07:50:35;;;;;;;13.37;11.97;;;;;;;;;;6215932;23;20252;-80
2024/03/10 07:53:02;;;;;;;12.30;11.10;;;;;;;;;;6215485;23;20196;-79
2024/03/10 07:55:37;;;;;;;13.23;11.77;;;;;;;;;;6216696;23;20228;-79
2024/03/10 07:58:07;;;;;;;11.90;10.67;;;;;;;;;;6214964;23;20157;-79
2024/03/10 08:00:35;;;;;;;11.87;10.67;;;;;;;;;;6215374;23;20173;-79
2024/03/10 08:03:02;;;;;;;12.07;10.77;;;;;;;;;;6241872;23;20164;-79
2024/03/10 08:05:29;;;;;;;10.53;9.53;;;;;;;;;;6215567;23;20180;-80
2024/03/10 08:07:57;;;;;;;11.17;10.00;;;;;;;;;;6241850;23;20171;-80
2024/03/10 08:10:25;;;;;;;11.87;10.67;;;;;;;;;;6215072;23;20240;-80
2024/03/10 08:12:52;;;;;;;11.43;10.33;;;;;;;;;;6215124;23;20188;-78
2024/03/10 08:15:20;;;;;;;11.40;10.30;;;;;;;;;;6242338;23;20191;-80
2024/03/10 08:17:52;;;;;;;11.00;9.90;;;;;;;;;;6241745;23;20176;-78
2024/03/10 08:20:24;;;;;;;10.23;9.17;;;;;;;;;;6214247;23;20189;-80
2024/03/10 08:22:54;;;;;;;12.50;11.20;;;;;;;;;;6213212;23;20177;-80
2024/03/10 08:25:22;;;;;;;10.20;9.10;;;;;;;;;;6240911;23;20161;-78
2024/03/10 08:27:51;;;;;;;12.83;11.53;;;;;;;;;;6241256;23;20256;-79
2024/03/10 08:30:18;;;;;;;11.27;10.10;;;;;;;;;;6242380;23;20172;-78
2024/03/10 08:32:46;;;;;;;11.53;10.43;;;;;;;;;;6215445;23;20613;-80
2024/03/10 08:35:14;;;;;;;10.33;9.33;;;;;;;;;;6190452;23;20189;-79
2024/03/10 08:37:46;;;;;;;10.57;9.47;;;;;;;;;;6191308;23;20173;-79
2024/03/10 08:40:15;;;;;;;11.33;9.30;;;;;;;;;;6242115;23;20157;-78
2024/03/10 08:42:45;;;;;;;10.77;9.00;;;;;;;;;;6240526;23;20235;-77
2024/03/10 08:45:13;;;;;;;9.57;8.60;;;;;;;;;;6241559;23;20280;-78
2024/03/10 08:47:41;;;;;;;10.07;9.07;;;;;;;;;;6241130;23;20212;-79
2024/03/10 08:50:11;;;;;;;9.30;8.40;;;;;;;;;;6215044;23;20240;-78
2024/03/10 08:52:39;;;;;;;9.73;8.83;;;;;;;;;;6214459;23;20176;-79
2024/03/10 08:55:07;;;;;;;10.63;9.50;;;;;;;;;;6241629;23;20212;-81
2024/03/10 08:57:35;;;;;;;10.67;9.67;;;;;;;;;;6240945;23;20184;-81
2024/03/10 09:00:03;;;;;;;10.57;9.57;;;;;;;;;;6190127;23;20251;-80
2024/03/10 09:02:31;;;;;;;11.87;10.10;;;;;;;;;;6214483;23;20169;-79
2024/03/10 09:04:59;;;;;;;10.90;9.90;;;;;;;;;;6240601;23;20172;-84
2024/03/10 09:07:29;;;;;;;11.37;10.30;;;;;;;;;;6240119;23;20169;-79
2024/03/10 09:09:57;;;;;;;10.83;9.80;;;;;;;;;;6241265;23;20189;-79
2024/03/10 09:12:25;;;;;;;10.37;9.37;;;;;;;;;;6241033;23;20170;-81
2024/03/10 09:14:52;;;;;;;10.73;9.63;;;;;;;;;;6211024;23;20162;-80
2024/03/10 09:17:20;;;;;;;10.03;9.13;;;;;;;;;;6211008;23;20710;-79
2024/03/10 09:19:47;;;;;;;18.80;9.50;;;;;;;;;;6210144;23;20220;-79
2024/03/10 09:22:15;;;;;;;9.13;8.33;;;;;;;;;;6210328;23;20637;-80
2024/03/10 09:24:48;;;;;;;9.90;9.00;;;;;;;;;;6183630;23;20637;-80
2024/03/10 09:27:19;;;;;;;9.67;8.80;;;;;;;;;;6183744;23;20193;-80
2024/03/10 09:29:47;;;;;;;9.60;8.70;;;;;;;;;;6210360;23;20170;-81
2024/03/10 09:32:19;;;;;;;11.00;9.90;;;;;;;;;;6210616;23;20186;-80
2024/03/10 09:34:47;;;;;;;10.10;9.20;;;;;;;;;;6210257;23;20171;-81
2024/03/10 09:37:15;;;;;;;9.57;8.67;;;;;;;;;;6210365;23;20168;-77
2024/03/10 09:39:43;;;;;;;9.90;8.97;;;;;;;;;;6210498;23;20162;-80
2024/03/10 09:42:14;;;;;;;11.13;10.03;;;;;;;;;;6210328;23;20202;-80
2024/03/10 09:44:46;;;;;;;10.80;9.47;;;;;;;;;;6210277;23;20181;-79
2024/03/10 09:47:18;;;;;;;10.63;9.63;;;;;;;;;;6210430;23;20163;-80
2024/03/10 09:49:47;;;;;;;9.87;8.97;;;;;;;;;;6183921;23;20205;-80
2024/03/10 09:52:15;;;;;;;10.20;9.27;;;;;;;;;;6210505;23;20166;-80
2024/03/10 09:54:43;;;;;;;13.73;12.30;;;;;;;;;;6184344;23;20250;-79
2024/03/10 09:57:10;;;;;;;24.00;18.97;;;;;;;;;;6184336;23;20629;-81
2024/03/10 09:59:39;;;;;;;15.70;12.47;;;;;;;;;;6210731;23;20188;-78
2024/03/10 10:02:09;;;;;;;13.50;12.20;;;;;;;;;;6211015;23;20218;-80
2024/03/10 10:04:37;;;;;;;14.13;12.47;;;;;;;;;;6184913;23;20166;-80
2024/03/10 10:07:09;;;;;;;14.10;12.63;;;;;;;;;;6184939;23;20193;-78
2024/03/10 10:09:37;;;;;;;14.53;12.93;;;;;;;;;;6186955;23;20253;-81
2024/03/10 10:12:06;;;;;;;11.33;10.23;;;;;;;;;;6186888;23;20168;-79
2024/03/10 10:14:35;;;;;;;11.37;10.27;;;;;;;;;;6240251;23;20215;-79
2024/03/10 10:17:03;;;;;;;15.00;12.70;;;;;;;;;;6243119;23;20216;-81
2024/03/10 10:19:32;;;;;;;12.67;11.37;;;;;;;;;;6243109;23;20165;-81
2024/03/10 10:22:05;;;;;;;9.73;8.90;;;;;;;;;;6243375;23;20270;-80
2024/03/10 10:24:35;;;;;;;10.70;9.60;;;;;;;;;;6216796;23;20402;-79
2024/03/10 10:27:03;;;;;;;8.07;7.33;;;;;;;;;;6216082;23;20173;-79
2024/03/10 10:29:49;;;;;;;10.53;9.60;;;;;;;;;;6242231;23;20174;-81
2024/03/10 10:32:23;;;;;;;9.10;8.20;;;;;;;;;;6242642;23;20167;-82
2024/03/10 10:34:56;;;;;;;9.40;8.50;;;;;;;;;;6215029;23;20275;-81
2024/03/10 10:37:24;;;;;;;7.47;6.50;;;;;;;;;;6216014;23;20163;-79
2024/03/10 10:39:52;;;;;;;7.17;6.57;;;;;;;;;;6216130;23;20222;-80
2024/03/10 10:42:21;;;;;;;7.50;6.77;;;;;;;;;;6216120;23;20192;-79
2024/03/10 10:45:01;;;;;;;8.77;6.80;;;;;;;;;;6242666;23;20247;-79
2024/03/10 10:47:29;;;;;;;7.93;7.13;;;;;;;;;;6242544;23;20634;-79
2024/03/10 10:49:57;;;;;;;7.93;7.20;;;;;;;;;;6242505;23;20274;-81
2024/03/10 10:52:24;;;;;;;8.70;7.80;;;;;;;;;;6242664;23;20207;-79
2024/03/10 10:54:56;;;;;;;8.03;7.33;;;;;;;;;;6215871;23;20614;-78
2024/03/10 10:57:25;;;;;;;8.07;7.17;;;;;;;;;;6216108;23;20168;-78
2024/03/10 10:59:53;;;;;;;9.27;8.37;;;;;;;;;;6215687;23;20189;-78
2024/03/10 11:02:21;;;;;;;10.00;9.00;;;;;;;;;;6242768;23;20260;-79
2024/03/10 11:04:50;;;;;;;9.60;8.60;;;;;;;;;;6242799;23;20742;-79
2024/03/10 11:07:18;;;;;;;9.90;9.00;;;;;;;;;;6215962;23;20169;-79
2024/03/10 11:09:50;;;;;;;9.57;8.57;;;;;;;;;;6242043;23;20227;-79
2024/03/10 11:12:20;;;;;;;9.23;8.27;;;;;;;;;;6242624;23;20208;-80
2024/03/10 11:14:50;;;;;;;10.70;8.77;;;;;;;;;;6210504;23;20211;-79
2024/03/10 11:17:23;;;;;;;9.07;8.27;;;;;;;;;;6211948;23;20170;-79
2024/03/10 11:19:52;;;;;;;8.97;8.10;;;;;;;;;;6209918;23;20177;-80
2024/03/10 11:22:30;;;;;;;10.13;9.20;;;;;;;;;;6212172;23;20177;-80
2024/03/10 11:25:08;;;;;;;11.00;9.90;;;;;;;;;;6185914;23;20173;-79
2024/03/10 11:27:42;;;;;;;9.50;8.50;;;;;;;;;;6212481;23;20185;-79
2024/03/10 11:30:29;;;;;;;8.70;7.90;;;;;;;;;;6210740;23;20169;-81
2024/03/10 11:33:04;;;;;;;9.10;7.77;;;;;;;;;;6212194;23;20165;-80
2024/03/10 11:35:37;;;;;;;7.67;6.57;;;;;;;;;;6210784;23;20166;-79
2024/03/10 11:38:09;;;;;;;5.97;5.03;;;;;;;;;;6212353;23;20197;-80
2024/03/10 11:40:40;;;;;;;6.70;5.80;;;;;;;;;;6212660;23;20170;-80
2024/03/10 11:43:08;;;;;;;10.23;6.73;;;;;;;;;;6210933;23;20243;-80
2024/03/10 11:45:41;;;;;;;16.77;9.23;;;;;;;;;;6186275;23;20190;-82
2024/03/10 11:48:09;;;;;;;5.83;4.20;;;;;;;;;;6212571;23;20173;-81
2024/03/10 11:50:37;;;;;;;5.20;3.60;;;;;;;;;;6211233;23;20162;-80
2024/03/10 11:53:05;;;;;;;4.27;3.30;;;;;;;;;;6212445;23;20166;-80
2024/03/10 11:55:33;;;;;;;4.80;2.90;;;;;;;;;;6210936;23;20162;-80
2024/03/10 11:58:04;;;;;;;3.80;2.97;;;;;;;;;;6211444;23;20174;-81
2024/03/10 12:00:35;;;;;;;3.57;3.20;;;;;;;;;;6212678;23;20318;-80
2024/03/10 12:03:04;;;;;;;3.97;2.90;;;;;;;;;;6210646;23;20253;-81
2024/03/10 12:05:34;;;;;;;3.77;2.90;;;;;;;;;;6212080;23;20166;-80
2024/03/10 12:08:05;;;;;;;3.93;2.93;;;;;;;;;;6210247;23;20239;-80
2024/03/10 12:10:34;;;;;;;4.60;3.97;;;;;;;;;;6211738;23;20213;-81
2024/03/10 12:13:01;;;;;;;5.23;2.77;;;;;;;;;;6218813;23;20189;-79
2024/03/10 12:15:33;;;;;;;4.47;2.67;;;;;;;;;;6214970;23;20193;-81
2024/03/10 12:18:05;;;;;;;2.90;2.70;;;;;;;;;;6242053;23;20173;-81
2024/03/10 12:20:34;;;;;;;4.37;2.70;;;;;;;;;;6242048;23;20169;-80
2024/03/10 12:23:02;;;;;;;3.00;2.70;;;;;;;;;;6242263;23;20200;-81
2024/03/10 12:25:31;;;;;;;2.47;2.27;;;;;;;;;;6242163;23;20169;-81
2024/03/10 12:27:59;;;;;;;3.93;2.93;;;;;;;;;;6214843;23;20193;-79
2024/03/10 12:30:26;;;;;;;3.93;2.70;;;;;;;;;;6215456;23;20207;-80
2024/03/10 12:32:54;;;;;;;3.37;2.43;;;;;;;;;;6214688;23;20177;-79
2024/03/10 12:35:23;;;;;;;3.87;2.97;;;;;;;;;;6242096;23;20191;-79
2024/03/10 12:37:50;;;;;;;3.73;2.53;;;;;;;;;;6242073;23;20240;-81
2024/03/10 12:40:21;;;;;;;4.37;2.27;;;;;;;;;;6241738;23;20169;-79
2024/03/10 12:42:51;;;;;;;2.60;1.90;;;;;;;;;;6215351;23;20177;-80
2024/03/10 12:45:19;;;;;;;3.40;2.27;;;;;;;;;;6242304;23;20166;-80
2024/03/10 12:47:50;;;;;;;3.93;1.90;;;;;;;;;;6242550;23;20161;-79
2024/03/10 12:50:18;;;;;;;5.77;2.30;;;;;;;;;;6242558;23;20184;-80
2024/03/10 12:52:46;;;;;;;3.53;1.83;;;;;;;;;;6215791;23;20283;-80
2024/03/10 12:55:15;;;;;;;4.23;1.80;;;;;;;;;;6242123;23;20627;-81
2024/03/10 12:57:43;;;;;;;3.43;2.00;;;;;;;;;;6241974;23;20173;-81
2024/03/10 13:00:27;;;;;;;5.73;2.33;;;;;;;;;;6242749;23;20295;-80
2024/03/10 13:13:33;;;;;;;3.37;2.50;;;;;;;;;;6105406;22;749519;-81
2024/03/10 13:16:01;;;;;;;4.67;2.03;;;;;;;;;;6159180;23;20174;-81
2024/03/10 13:18:28;;;;;;;5.90;2.13;;;;;;;;;;6162144;23;20489;-81
2024/03/10 13:20:55;;;;;;;5.70;2.57;;;;;;;;;;6136164;23;20167;-81
2024/03/10 13:23:23;;;;;;;3.07;2.00;;;;;;;;;;6136429;23;20167;-81
2024/03/10 13:25:50;;;;;;;5.43;2.13;;;;;;;;;;6137905;23;20253;-80
2024/03/10 13:28:22;;;;;;;3.60;2.23;;;;;;;;;;6165939;23;20241;-80
2024/03/10 13:30:49;;;;;;;5.67;2.73;;;;;;;;;;6166089;23;20182;-80
2024/03/10 13:33:18;;;;;;;4.27;2.60;;;;;;;;;;6165785;23;20704;-80
2024/03/10 13:35:45;;;;;;;3.57;2.10;;;;;;;;;;6165453;23;20194;-80
2024/03/10 13:38:14;;;;;;;6.20;2.23;;;;;;;;;;6114908;23;20174;-81
2024/03/10 13:40:41;;;;;;;5.37;2.67;;;;;;;;;;6140025;23;20171;-80
2024/03/10 13:43:12;;;;;;;4.43;2.70;;;;;;;;;;6165058;23;20250;-80
2024/03/10 13:45:44;;;;;;;4.97;2.50;;;;;;;;;;6164731;23;20604;-81
2024/03/10 13:48:12;;;;;;;5.67;2.60;;;;;;;;;;6164166;23;20143;-81
2024/03/10 13:50:39;;;;;;;5.53;2.57;;;;;;;;;;6164045;23;20245;-81
2024/03/10 13:53:09;;;;;;;6.07;2.60;;;;;;;;;;6166786;23;20623;-80
2024/03/10 13:55:39;;;;;;;4.83;3.07;;;;;;;;;;6164726;23;20652;-81
2024/03/10 13:58:08;;;;;;;5.90;3.07;;;;;;;;;;6164177;23;20171;-81
2024/03/10 14:00:37;;;;;;;7.87;3.47;;;;;;;;;;6163551;23;20616;-81
2024/03/10 14:03:05;;;;;;;4.80;3.10;;;;;;;;;;6137102;23;20187;-81
2024/03/10 14:05:36;;;;;;;7.80;2.80;;;;;;;;;;6163133;23;20246;-81
2024/03/10 14:08:05;;;;;;;9.37;6.27;;;;;;;;;;6137588;23;20186;-81
2024/03/10 14:10:32;;;;;;;15.23;6.27;;;;;;;;;;6112607;23;20171;-82
2024/03/10 14:13:00;;;;;;;6.17;3.67;;;;;;;;;;6182663;23;20202;-81
2024/03/10 14:15:30;;;;;;;10.57;5.20;;;;;;;;;;6186509;23;20559;-81
2024/03/10 14:17:57;;;;;;;9.83;5.47;;;;;;;;;;6187081;23;20167;-81
2024/03/10 14:20:25;;;;;;;7.63;5.13;;;;;;;;;;6160044;23;20171;-80
2024/03/10 14:22:53;;;;;;;9.23;4.60;;;;;;;;;;6186387;23;20193;-80
2024/03/10 14:25:21;;;;;;;7.50;4.13;;;;;;;;;;6186153;23;20171;-81
2024/03/10 14:27:52;;;;;;;5.23;3.17;;;;;;;;;;6159865;23;20195;-79
2024/03/10 14:30:26;;;;;;;7.57;4.67;;;;;;;;;;6183844;23;20162;-80
2024/03/10 14:32:54;;;;;;;6.83;4.10;;;;;;;;;;6157489;23;20182;-80
2024/03/10 14:35:24;;;;;;;11.33;6.87;;;;;;;;;;6186625;23;20189;-80
2024/03/10 14:37:53;;;;;;;11.97;5.83;;;;;;;;;;6184326;23;20172;-80
2024/03/10 14:40:21;;;;;;;15.20;8.70;;;;;;;;;;6184144;23;20238;-79
2024/03/10 14:42:50;;;;;;;19.83;10.90;;;;;;;;;;6160804;23;20217;-80
2024/03/10 14:45:19;;;;;;;12.93;7.63;;;;;;;;;;6184944;23;20173;-79
2024/03/10 14:47:47;;;;;;;14.60;8.43;;;;;;;;;;6184870;23;20162;-80
2024/03/10 14:50:20;;;;;;;11.67;5.57;;;;;;;;;;6161457;23;20238;-79
2024/03/10 14:52:49;;;;;;;7.80;4.30;;;;;;;;;;6164872;23;20177;-79
2024/03/10 14:55:16;;;;;;;6.73;3.90;;;;;;;;;;6165989;23;20177;-79
2024/03/10 14:57:45;;;;;;;6.87;3.70;;;;;;;;;;6191122;23;20162;-79
2024/03/10 15:00:32;;;;;;;6.73;3.30;;;;;;;;;;6190672;23;20158;-79
2024/03/10 15:03:08;;;;;;;8.20;3.53;;;;;;;;;;6192076;23;20191;-79
2024/03/10 15:05:39;;;;;;;6.73;3.33;;;;;;;;;;6192069;23;20189;-79
2024/03/10 15:08:08;;;;;;;6.53;3.30;;;;;;;;;;6192858;23;20150;-78
2024/03/10 15:10:37;;;;;;;7.20;3.20;;;;;;;;;;6194288;23;20159;-79